.
WxDataArchive / Data Records for 2008-05-26
2008-05-25 May 2008 2008-05-27

Data Records for Monday, 26 May 2008

Time	Temp	Chill	HIndex	Humid	Dewpt	 Wind 	HiWind	WindDir	Rain 	Barom 
-----	----	-----	------	-----	-----	------	------	-------	-----	----- 
00:00	63.5	63.5	63.5	60	49.4	0	0	---	0.00	29.802 
00:05	63.4	63.4	63.4	60	49.3	0	0	---	0.00	29.800 
00:10	63.2	63.2	63.2	60	49.1	0	0	---	0.00	29.796 
00:15	63.4	63.4	63.4	59	48.8	0	1	90	0.00	29.789 
00:20	63.5	63.5	63.5	58	48.5	0	2	112	0.00	29.786 
00:25	63.9	63.9	63.9	57	48.4	0	1	112	0.00	29.779 
00:30	64.2	64.2	64.2	57	48.6	0	1	112	0.00	29.773 
00:35	64.3	64.3	64.3	56	48.3	0	1	112	0.00	29.777 
00:40	64.3	64.3	64.3	58	49.2	0	0	---	0.00	29.774 
00:45	64.2	64.2	64.2	57	48.6	0	1	112	0.00	29.769 
00:50	64.2	64.2	64.2	57	48.6	0	1	112	0.00	29.767 
00:55	64.2	64.2	64.2	58	49.1	0	1	112	0.00	29.764 
01:00	64.2	64.2	64.2	58	49.1	0	1	112	0.00	29.756 
01:05	64.2	64.2	64.2	58	49.1	0	2	112	0.00	29.753 
01:10	64.2	64.2	64.2	58	49.1	0	2	112	0.00	29.752 
01:15	64.2	64.2	64.2	59	49.6	0	1	112	0.00	29.753 
01:20	64.2	64.2	64.2	59	49.6	0	1	112	0.00	29.754 
01:25	64.0	64.0	64.0	59	49.4	0	1	112	0.00	29.753 
01:30	64.0	64.0	64.0	59	49.4	0	2	112	0.00	29.755 
01:35	64.0	64.0	64.0	59	49.4	0	2	112	0.00	29.753 
01:40	64.3	64.3	64.3	59	49.7	0	2	135	0.00	29.753 
01:45	64.3	64.3	64.3	59	49.7	0	1	135	0.00	29.750 
01:50	64.3	64.3	64.3	60	50.1	0	1	135	0.00	29.751 
01:55	64.3	64.3	64.3	60	50.1	0	2	135	0.00	29.751 
02:00	64.2	64.2	64.2	61	50.5	0	2	135	0.00	29.753 
02:05	64.0	64.0	64.0	61	50.3	0	1	135	0.00	29.757 
02:10	63.9	63.9	63.9	62	50.6	0	1	135	0.00	29.763 
02:15	63.7	63.7	63.7	62	50.4	0	1	135	0.00	29.761 
02:20	63.7	63.7	63.7	63	50.9	0	2	180	0.00	29.761 
02:25	63.7	63.7	63.7	63	50.9	0	0	---	0.00	29.756 
02:30	63.7	63.7	63.7	64	51.3	0	1	180	0.00	29.755 
02:35	63.7	63.7	63.7	64	51.3	0	1	180	0.00	29.758 
02:40	63.7	63.7	63.7	64	51.3	0	0	---	0.00	29.760 
02:45	63.5	63.5	63.5	65	51.5	0	1	180	0.00	29.765 
02:50	63.5	63.5	63.5	65	51.5	0	0	---	0.00	29.766 
02:55	63.5	63.5	63.5	65	51.5	0	0	---	0.00	29.766 
03:00	63.5	63.5	63.5	65	51.5	0	0	---	0.00	29.766 
03:05	63.5	63.5	63.5	65	51.5	0	0	---	0.00	29.767 
03:10	63.5	63.5	63.5	65	51.5	0	0	---	0.00	29.771 
03:15	63.4	63.4	63.4	65	51.4	0	0	---	0.00	29.776 
03:20	63.5	63.5	63.5	68	52.7	0	0	---	0.00	29.781 
03:25	63.5	63.5	63.5	75	55.4	0	0	---	0.01	29.790 
03:30	63.2	63.2	63.2	77	55.9	0	0	---	0.00	29.796 
03:35	62.7	62.7	62.7	79	56.1	0	1	180	0.00	29.802 
03:40	62.7	62.7	62.7	81	56.8	0	2	180	0.00	29.802 
03:45	62.6	62.6	62.6	84	57.7	0	2	180	0.06	29.797 
03:50	62.3	62.3	62.3	85	57.7	1	2	180	0.01	29.801 
03:55	62.0	62.0	62.0	87	58.1	0	2	338	0.00	29.811 
04:00	61.6	61.6	61.6	87	57.7	0	2	338	0.02	29.799 
04:05	61.3	61.3	61.3	88	57.7	0	1	338	0.00	29.799 
04:10	61.2	61.2	61.2	88	57.6	0	1	338	0.00	29.800 
04:15	61.2	61.2	61.2	89	57.9	0	1	338	0.00	29.792 
04:20	61.0	61.0	61.0	89	57.7	0	1	338	0.00	29.786 
04:25	60.9	60.9	60.9	90	57.9	0	0	---	0.00	29.786 
04:30	60.7	60.7	60.7	90	57.7	0	0	---	0.00	29.783 
04:35	60.5	60.5	60.5	91	57.9	0	0	---	0.00	29.783 
04:40	60.5	60.5	60.5	91	57.9	0	1	338	0.00	29.785 
04:45	60.4	60.4	60.4	92	58.1	0	1	338	0.00	29.789 
04:50	60.2	60.2	60.2	92	57.9	0	0	---	0.00	29.787 
04:55	60.2	60.2	60.2	92	57.9	0	1	338	0.00	29.784 
05:00	60.1	60.1	60.1	92	57.8	0	1	338	0.00	29.781 
05:05	60.1	60.1	60.1	92	57.8	0	0	---	0.00	29.783 
05:10	60.1	60.1	60.1	92	57.8	0	0	---	0.00	29.778 
05:15	60.1	60.1	60.1	93	58.1	0	1	338	0.00	29.775 
05:20	60.1	60.1	60.1	93	58.1	0	1	338	0.00	29.776 
05:25	60.1	60.1	60.1	93	58.1	0	0	---	0.00	29.770 
05:30	60.1	60.1	60.1	93	58.1	0	0	---	0.00	29.769 
05:35	60.1	60.1	60.1	93	58.1	0	0	---	0.00	29.772 
05:40	60.2	60.2	60.2	94	58.5	0	0	---	0.00	29.774 
05:45	60.2	60.2	60.2	94	58.5	0	0	---	0.00	29.777 
05:50	60.2	60.2	60.2	94	58.5	0	0	---	0.00	29.776 
05:55	60.2	60.2	60.2	94	58.5	0	1	338	0.00	29.773 
06:00	60.4	60.4	60.4	94	58.7	0	1	338	0.00	29.773 
06:05	60.7	60.7	60.7	94	59.0	0	1	338	0.00	29.773 
06:10	60.9	60.9	60.9	94	59.2	0	2	338	0.00	29.768 
06:15	61.0	61.0	61.0	94	59.3	0	2	338	0.00	29.760 
06:20	61.2	61.2	61.2	94	59.5	0	4	225	0.00	29.766 
06:25	61.5	61.5	61.5	93	59.5	0	3	248	0.00	29.768 
06:30	61.6	61.6	61.6	93	59.6	1	3	248	0.00	29.767 
06:35	62.0	62.0	62.0	92	59.6	1	4	248	0.00	29.766 
06:40	62.4	62.4	62.4	91	59.7	1	3	270	0.00	29.762 
06:45	62.9	62.9	62.9	89	59.6	1	4	248	0.00	29.752 
06:50	63.4	63.4	63.4	88	59.8	1	3	248	0.00	29.750 
06:55	63.9	63.9	63.9	87	59.9	1	4	248	0.00	29.748 
07:00	64.3	64.3	64.3	86	60.0	1	4	248	0.00	29.739 
07:05	64.7	64.7	64.7	85	60.1	1	4	248	0.00	29.738 
07:10	64.8	64.8	64.8	84	59.8	1	3	270	0.00	29.740 
07:15	65.0	65.0	65.0	84	60.0	1	3	225	0.00	29.735 
07:20	65.3	65.3	65.3	84	60.3	1	3	225	0.00	29.731 
07:25	65.5	65.5	65.5	84	60.5	1	5	225	0.00	29.724 
07:30	65.6	65.6	65.6	83	60.3	1	3	248	0.00	29.726 
07:35	66.0	66.0	66.0	83	60.7	1	3	225	0.00	29.727 
07:40	66.3	66.3	66.3	83	61.0	1	4	248	0.00	29.723 
07:45	66.4	66.4	66.4	82	60.7	1	2	248	0.00	29.725 
07:50	66.6	66.6	66.6	82	60.9	0	1	248	0.00	29.731 
07:55	66.8	66.8	66.8	81	60.8	1	3	248	0.00	29.728 
08:00	66.9	66.9	66.9	81	60.9	0	2	270	0.00	29.721 
08:05	67.3	67.3	67.3	80	60.9	1	3	248	0.00	29.722 
08:10	67.8	67.8	67.8	80	61.4	0	2	248	0.00	29.720 
08:15	68.1	68.1	68.1	80	61.7	0	1	248	0.00	29.720 
08:20	68.4	68.4	68.4	79	61.6	0	2	248	0.00	29.721 
08:25	68.9	68.9	68.9	78	61.7	1	3	248	0.00	29.723 
08:30	69.6	69.6	69.6	77	62.1	1	2	248	0.00	29.728 
08:35	69.8	69.8	69.8	75	61.5	1	2	248	0.00	29.734 
08:40	70.1	70.1	70.1	76	62.2	1	2	248	0.00	29.736 
08:45	70.6	70.6	70.6	75	62.3	0	3	248	0.00	29.733 
08:50	70.9	70.9	70.9	73	61.8	1	3	248	0.00	29.730 
08:55	70.9	70.9	70.9	73	61.8	1	3	270	0.00	29.730 
09:00	71.1	71.1	71.1	72	61.6	1	3	270	0.00	29.733 
09:05	71.3	71.3	71.3	73	62.2	0	1	248	0.00	29.737 
09:10	71.3	71.3	71.3	72	61.8	1	4	248	0.00	29.739 
09:15	71.5	71.5	71.5	72	62.0	1	4	270	0.00	29.739 
09:20	71.8	71.8	71.8	72	62.3	1	4	248	0.00	29.738 
09:25	72.3	72.3	72.3	71	62.4	1	3	248	0.00	29.740 
09:30	72.7	72.7	72.7	71	62.7	1	3	248	0.00	29.741 
09:35	73.0	73.0	73.0	71	63.0	1	3	248	0.00	29.741 
09:40	73.7	73.7	73.7	71	63.7	1	2	225	0.00	29.739 
09:45	74.2	74.2	74.2	69	63.4	1	4	248	0.00	29.745 
09:50	75.1	75.1	77.0	67	63.4	1	3	248	0.00	29.748 
09:55	75.6	75.6	77.6	64	62.5	2	4	248	0.00	29.750 
10:00	76.3	76.3	78.1	65	63.6	1	3	248	0.00	29.753 
10:05	76.8	76.8	78.6	62	62.8	2	4	248	0.00	29.752 
10:10	77.4	77.4	79.2	64	64.2	2	7	248	0.00	29.750 
10:15	77.9	77.9	79.6	61	63.3	1	3	248	0.00	29.751 
10:20	77.9	77.9	79.5	59	62.4	3	10	248	0.00	29.753 
10:25	78.1	78.1	79.7	58	62.1	3	7	248	0.00	29.760 
10:30	78.5	78.5	80.0	58	62.5	3	9	248	0.00	29.762 
10:35	79.4	79.4	80.9	58	63.3	2	5	248	0.00	29.761 
10:40	80.3	80.3	81.4	53	61.6	2	5	248	0.00	29.761 
10:45	79.8	79.8	81.0	54	61.7	3	7	270	0.00	29.763 
10:50	79.6	79.6	80.7	53	60.9	3	10	270	0.00	29.764 
10:55	79.2	79.2	80.3	52	60.0	4	9	248	0.00	29.768 
11:00	79.8	79.8	80.8	52	60.6	3	7	270	0.00	29.768 
11:05	79.9	79.9	80.9	52	60.7	3	6	270	0.00	29.769 
11:10	79.8	79.8	80.6	50	59.5	3	6	248	0.00	29.774 
11:15	79.8	79.8	80.7	51	60.0	3	9	248	0.00	29.775 
11:20	80.9	80.9	81.6	50	60.5	3	7	270	0.00	29.775 
11:25	81.1	81.1	81.7	49	60.1	3	7	248	0.00	29.776 
11:30	80.5	80.5	81.3	50	60.1	2	4	270	0.00	29.778 
11:35	79.6	79.6	80.5	50	59.3	3	8	248	0.00	29.778 
11:40	78.8	78.8	79.9	51	59.1	3	6	270	0.00	29.780 
11:45	78.6	78.6	79.7	51	58.9	2	5	270	0.00	29.780 
11:50	78.8	78.8	79.9	52	59.7	1	9	248	0.00	29.780 
11:55	79.0	79.0	80.0	51	59.3	2	8	270	0.00	29.780 
12:00	79.4	79.4	80.5	52	60.2	3	11	270	0.00	29.781 
12:05	79.6	79.6	80.5	50	59.3	3	7	248	0.00	29.780 
12:10	79.9	79.9	80.8	51	60.1	3	7	248	0.00	29.778 
12:15	80.3	80.3	81.0	49	59.4	4	11	248	0.00	29.778 
12:20	80.5	80.5	81.3	50	60.1	5	15	248	0.00	29.777 
12:25	80.7	80.7	81.3	49	59.7	4	11	270	0.00	29.777 
12:30	80.5	80.5	81.3	50	60.1	3	7	270	0.00	29.778 
12:35	80.5	80.5	81.3	50	60.1	4	10	270	0.00	29.778 
12:40	81.1	81.1	81.7	49	60.1	3	7	270	0.00	29.776 
12:45	81.6	81.6	82.3	50	61.1	2	6	248	0.00	29.772 
12:50	81.8	81.8	82.6	50	61.3	2	5	248	0.00	29.772 
12:55	82.4	82.4	82.9	48	60.7	3	10	270	0.00	29.772 
13:00	83.0	83.0	83.5	48	61.3	2	6	248	0.00	29.770 
13:05	83.2	83.2	83.4	46	60.2	3	6	270	0.00	29.769 
13:10	82.8	82.8	82.9	45	59.3	4	12	270	0.00	29.767 
13:15	82.8	82.8	83.0	46	59.9	3	8	270	0.00	29.767 
13:20	83.6	83.6	83.9	46	60.6	3	7	270	0.00	29.769 
13:25	83.2	83.2	83.4	46	60.2	4	12	270	0.00	29.768 
13:30	82.6	82.6	82.8	46	59.7	3	10	248	0.00	29.773 
13:35	82.0	82.0	82.2	46	59.1	3	6	270	0.00	29.769 
13:40	82.0	82.0	82.3	47	59.8	3	6	248	0.00	29.771 
13:45	82.2	82.2	82.5	47	59.9	2	6	248	0.00	29.771 
13:50	83.0	83.0	83.2	46	60.1	1	5	248	0.00	29.766 
13:55	83.0	83.0	83.1	45	59.4	4	10	270	0.00	29.771 
14:00	82.6	82.6	82.7	45	59.1	3	8	248	0.00	29.766 
14:05	83.0	83.0	83.5	48	61.3	2	7	248	0.00	29.764 
14:10	83.2	83.2	83.6	47	60.8	3	6	248	0.00	29.766 
14:15	83.2	83.2	83.1	44	59.0	3	10	248	0.00	29.766 
14:20	82.8	82.8	83.0	46	59.9	3	10	248	0.00	29.765 
14:25	83.4	83.4	83.7	46	60.4	3	10	270	0.00	29.764 
14:30	84.0	84.0	84.3	46	61.0	3	12	270	0.00	29.764 
14:35	83.6	83.6	83.9	46	60.6	3	7	270	0.00	29.761 
14:40	83.2	83.2	83.6	47	60.8	2	5	270	0.00	29.763 
14:45	82.8	82.8	83.2	47	60.5	1	4	248	0.00	29.761 
14:50	82.4	82.4	82.7	47	60.1	2	4	248	0.00	29.761 
14:55	81.8	81.8	82.3	48	60.2	3	7	248	0.00	29.761 
15:00	81.4	81.4	81.9	48	59.8	3	7	248	0.00	29.762 
15:05	81.4	81.4	82.0	49	60.4	3	9	270	0.00	29.763 
15:10	81.4	81.4	82.0	49	60.4	2	5	270	0.00	29.763 
15:15	81.2	81.2	81.9	50	60.8	2	4	248	0.00	29.764 
15:20	81.2	81.2	81.9	50	60.8	2	5	248	0.00	29.763 
15:25	81.1	81.1	81.8	50	60.7	2	5	248	0.00	29.763 
15:30	80.9	80.9	82.0	53	62.1	3	8	270	0.00	29.763 
15:35	80.7	80.7	81.3	49	59.7	2	6	270	0.00	29.764 
15:40	80.7	80.7	81.3	49	59.7	2	6	248	0.00	29.762 
15:45	80.5	80.5	81.3	50	60.1	2	5	248	0.00	29.765 
15:50	80.5	80.5	81.3	50	60.1	3	7	248	0.00	29.765 
15:55	80.3	80.3	81.1	50	59.9	2	7	248	0.00	29.764 
16:00	80.3	80.3	81.2	51	60.5	2	5	248	0.00	29.764 
16:05	80.3	80.3	81.2	51	60.5	2	6	270	0.00	29.766 
16:10	80.3	80.3	81.3	52	61.0	1	3	248	0.00	29.765 
16:15	80.5	80.5	81.3	50	60.1	3	7	248	0.00	29.769 
16:20	80.3	80.3	81.3	52	61.0	2	5	270	0.00	29.772 
16:25	80.5	80.5	81.4	51	60.7	3	11	270	0.00	29.771 
16:30	80.3	80.3	81.3	52	61.0	3	5	248	0.00	29.769 
16:35	80.3	80.3	81.5	54	62.1	2	4	248	0.00	29.774 
16:40	80.1	80.1	81.3	54	61.9	3	6	248	0.00	29.773 
16:45	79.6	79.6	80.9	55	62.0	3	11	248	0.00	29.774 
16:50	79.4	79.4	80.8	56	62.3	2	5	248	0.00	29.777 
16:55	79.2	79.2	80.7	57	62.6	2	4	248	0.00	29.775 
17:00	78.8	78.8	80.2	56	61.8	3	9	248	0.00	29.777 
17:05	78.5	78.5	79.9	56	61.5	3	7	270	0.00	29.779 
17:10	78.3	78.3	79.8	57	61.8	2	5	248	0.00	29.780 
17:15	77.9	77.9	79.4	56	60.9	3	5	248	0.00	29.781 
17:20	77.9	77.9	79.5	57	61.4	2	5	248	0.00	29.782 
17:25	78.1	78.1	79.6	57	61.6	1	3	248	0.00	29.783 
17:30	78.1	78.1	79.6	57	61.6	2	5	248	0.00	29.783 
17:35	77.9	77.9	79.5	57	61.4	2	6	248	0.00	29.783 
17:40	77.7	77.7	79.3	58	61.7	2	5	248	0.00	29.783 
17:45	77.4	77.4	79.1	58	61.4	1	4	270	0.00	29.783 
17:50	77.2	77.2	78.9	59	61.7	2	4	270	0.00	29.785 
17:55	77.2	77.2	78.9	59	61.7	1	3	270	0.00	29.785 
18:00	77.0	77.0	78.8	58	61.1	2	10	248	0.00	29.785 
18:05	77.0	77.0	78.8	58	61.1	3	9	248	0.00	29.782 
18:10	77.0	77.0	78.8	58	61.1	2	7	248	0.00	29.781 
18:15	77.0	77.0	78.8	59	61.6	1	5	248	0.00	29.787 
18:20	77.0	77.0	78.8	58	61.1	2	10	248	0.00	29.786 
18:25	76.8	76.8	78.6	58	60.9	2	6	248	0.00	29.782 
18:30	76.8	76.8	78.6	59	61.4	2	4	248	0.00	29.783 
18:35	76.7	76.7	78.5	59	61.3	1	4	248	0.00	29.784 
18:40	76.7	76.7	78.5	60	61.7	0	2	248	0.00	29.784 
18:45	76.7	76.7	78.5	59	61.3	1	5	248	0.00	29.783 
18:50	76.8	76.8	78.6	59	61.4	1	3	248	0.00	29.784 
18:55	76.7	76.7	78.5	58	60.8	1	4	248	0.00	29.787 
19:00	76.5	76.5	78.4	59	61.1	1	3	270	0.00	29.788 
19:05	76.5	76.5	78.4	60	61.6	1	2	248	0.00	29.784 
19:10	76.3	76.3	78.2	60	61.4	1	2	248	0.00	29.785 
19:15	76.3	76.3	78.2	60	61.4	1	4	248	0.00	29.787 
19:20	76.0	76.0	78.0	61	61.6	1	5	248	0.00	29.786 
19:25	75.8	75.8	77.8	62	61.8	1	3	248	0.00	29.788 
19:30	75.6	75.6	77.7	62	61.6	1	5	248	0.00	29.789 
19:35	75.4	75.4	77.5	62	61.5	1	4	270	0.00	29.789 
19:40	75.3	75.3	77.4	63	61.8	0	2	248	0.00	29.787 
19:45	75.1	75.1	77.2	64	62.1	1	3	248	0.00	29.790 
19:50	74.9	74.9	74.9	64	61.9	1	3	248	0.00	29.792 
19:55	74.6	74.6	74.6	65	62.0	0	3	248	0.00	29.793 
20:00	74.4	74.4	74.4	65	61.8	1	4	248	0.00	29.792 
20:05	74.2	74.2	74.2	65	61.7	0	2	248	0.00	29.789 
20:10	74.0	74.0	74.0	66	61.9	0	3	248	0.00	29.786 
20:15	73.9	73.9	73.9	66	61.8	0	2	248	0.00	29.788 
20:20	73.7	73.7	73.7	66	61.6	0	3	248	0.00	29.788 
20:25	73.5	73.5	73.5	66	61.4	0	2	248	0.00	29.788 
20:30	73.3	73.3	73.3	67	61.7	0	1	248	0.00	29.789 
20:35	73.3	73.3	73.3	67	61.7	0	3	248	0.00	29.790 
20:40	73.2	73.2	73.2	67	61.6	1	2	248	0.00	29.790 
20:45	73.2	73.2	73.2	67	61.6	1	3	248	0.00	29.791 
20:50	73.0	73.0	73.0	68	61.8	0	2	248	0.00	29.789 
20:55	72.8	72.8	72.8	68	61.6	0	1	248	0.00	29.790 
21:00	72.7	72.7	72.7	69	61.9	0	4	270	0.00	29.792 
21:05	72.5	72.5	72.5	69	61.7	0	2	248	0.00	29.790 
21:10	72.3	72.3	72.3	70	62.0	1	3	248	0.00	29.791 
21:15	72.3	72.3	72.3	70	62.0	0	2	248	0.00	29.790 
21:20	72.1	72.1	72.1	71	62.2	0	2	248	0.00	29.791 
21:25	72.0	72.0	72.0	71	62.1	1	4	248	0.00	29.791 
21:30	71.8	71.8	71.8	72	62.3	1	5	248	0.00	29.794 
21:35	71.8	71.8	71.8	73	62.7	1	3	248	0.00	29.796 
21:40	71.6	71.6	71.6	73	62.5	1	3	248	0.00	29.796 
21:45	71.5	71.5	71.5	74	62.8	1	4	248	0.00	29.799 
21:50	71.3	71.3	71.3	74	62.6	1	3	248	0.00	29.803 
21:55	71.1	71.1	71.1	75	62.8	0	3	248	0.00	29.807 
22:00	71.1	71.1	71.1	76	63.1	1	4	248	0.00	29.808 
22:05	70.9	70.9	70.9	77	63.3	1	3	248	0.00	29.804 
22:10	70.8	70.8	70.8	77	63.2	1	3	248	0.00	29.803 
22:15	70.8	70.8	70.8	78	63.6	0	3	248	0.00	29.802 
22:20	70.6	70.6	70.6	78	63.4	1	4	248	0.00	29.800 
22:25	70.4	70.4	70.4	79	63.6	1	4	270	0.00	29.798 
22:30	70.3	70.3	70.3	79	63.5	0	2	248	0.00	29.794 
22:35	70.1	70.1	70.1	80	63.6	1	6	270	0.00	29.791 
22:40	69.9	69.9	69.9	81	63.8	1	3	248	0.00	29.798 
22:45	69.9	69.9	69.9	81	63.8	1	4	248	0.00	29.799 
22:50	69.8	69.8	69.8	82	64.0	0	3	225	0.00	29.800 
22:55	69.6	69.6	69.6	82	63.9	1	5	248	0.00	29.798 
23:00	69.4	69.4	69.4	83	64.0	1	3	248	0.00	29.800 
23:05	69.3	69.3	69.3	83	63.9	0	2	248	0.00	29.797 
23:10	69.1	69.1	69.1	84	64.1	0	2	248	0.00	29.800 
23:15	68.9	68.9	68.9	84	63.9	0	2	315	0.00	29.804 
23:20	68.9	68.9	68.9	85	64.2	0	2	225	0.00	29.804 
23:25	68.8	68.8	68.8	85	64.1	0	3	248	0.00	29.804 
23:30	68.8	68.8	68.8	85	64.1	1	2	248	0.00	29.805 
23:35	68.6	68.6	68.6	86	64.2	0	2	248	0.00	29.805 
23:40	68.6	68.6	68.6	86	64.2	1	3	248	0.00	29.806 
23:45	68.6	68.6	68.6	86	64.2	1	3	248	0.00	29.806 
23:50	68.4	68.4	68.4	86	64.0	0	2	248	0.00	29.807 
23:55	68.4	68.4	68.4	86	64.0	1	3	248	0.00	29.811 

CoCoRaHS
IN-AL-39
A2 Web Hosting
Creative Commons License
GoDaddy
Look for:

loaded 2017-12-12 06:59:55 • last modified 2010-11-18 10:43:29
Privacy PolicyDisclaimer
• wx.awcolley.com is powered by PmWiki v.2002016 •
• all content (unless otherwise noted) © 2017 A W Colley